createdAt,value
2022-10-22T00:00:01.323Z,35.90
2022-10-22T00:01:33.476Z,36.37
2022-10-22T00:03:06.598Z,36.37
2022-10-22T00:04:41.089Z,37.43
2022-10-22T00:06:13.146Z,37.07
2022-10-22T00:07:46.203Z,37.07
2022-10-22T00:09:18.552Z,37.37
2022-10-22T00:10:52.764Z,36.00
2022-10-22T00:12:25.839Z,35.87
2022-10-22T00:13:59.108Z,38.07
2022-10-22T00:15:32.193Z,37.67
2022-10-22T00:17:07.040Z,37.83
2022-10-22T00:18:43.387Z,36.87
2022-10-22T00:20:17.838Z,38.07
2022-10-22T00:21:50.881Z,38.53
2022-10-22T00:23:23.967Z,38.47
2022-10-22T00:24:57.088Z,38.00
2022-10-22T00:26:30.095Z,37.97
2022-10-22T00:28:02.231Z,38.70
2022-10-22T00:29:35.256Z,38.43
2022-10-22T00:31:08.646Z,39.57
2022-10-22T00:32:40.795Z,38.43
2022-10-22T00:34:14.081Z,37.80
2022-10-22T00:35:47.648Z,37.57
2022-10-22T00:37:20.677Z,38.30
2022-10-22T00:38:52.718Z,37.83
2022-10-22T00:40:26.269Z,38.90
2022-10-22T00:41:59.855Z,38.83
2022-10-22T00:43:32.939Z,36.93
2022-10-22T00:45:14.643Z,37.37
2022-10-22T00:46:47.668Z,36.33
2022-10-22T00:48:24.165Z,35.00
2022-10-22T00:49:57.292Z,37.50
2022-10-22T00:51:35.012Z,35.43
2022-10-22T00:53:14.108Z,36.23
2022-10-22T00:54:46.243Z,37.67
2022-10-22T00:56:20.078Z,37.20
2022-10-22T00:57:54.121Z,37.83
2022-10-22T00:59:27.194Z,38.20
2022-10-22T01:01:00.534Z,37.77
2022-10-22T01:02:32.667Z,37.60
2022-10-22T01:04:05.886Z,37.10
2022-10-22T01:05:44.083Z,36.40
2022-10-22T01:07:20.191Z,36.27
2022-10-22T01:09:03.863Z,37.37
2022-10-22T01:10:51.687Z,36.23
2022-10-22T01:12:33.170Z,37.83
2022-10-22T01:14:17.559Z,37.83
2022-10-22T01:15:57.224Z,36.70
2022-10-22T01:17:35.158Z,36.17
2022-10-22T01:19:30.326Z,36.70
2022-10-22T01:21:11.685Z,37.53
2022-10-22T01:22:59.229Z,37.93
2022-10-22T01:24:41.606Z,38.70
2022-10-22T01:28:06.958Z,39.57
2022-10-22T01:29:45.675Z,37.07
2022-10-22T01:31:22.733Z,37.33
2022-10-22T01:33:01.439Z,36.83
2022-10-22T01:34:34.767Z,37.47
2022-10-22T01:36:09.333Z,38.60
2022-10-22T01:37:47.165Z,36.53
2022-10-22T01:39:20.543Z,37.43
2022-10-22T01:40:53.897Z,36.93
2022-10-22T01:42:26.976Z,38.07
2022-10-22T01:44:00.214Z,36.80
2022-10-22T01:45:37.365Z,37.03
2022-10-22T01:47:22.284Z,38.30
2022-10-22T01:49:13.644Z,36.97
2022-10-22T01:51:14.721Z,36.37
2022-10-22T01:53:08.074Z,36.57
2022-10-22T01:54:46.568Z,37.63
2022-10-22T01:56:31.314Z,36.77
2022-10-22T01:58:13.919Z,37.90
2022-10-22T01:59:54.476Z,36.30
2022-10-22T02:01:36.578Z,37.50
2022-10-22T02:03:16.553Z,37.60
2022-10-22T02:04:56.266Z,38.00
2022-10-22T02:06:32.144Z,37.03
2022-10-22T02:08:10.042Z,35.70
2022-10-22T02:09:44.782Z,36.57
2022-10-22T02:11:18.289Z,36.73
2022-10-22T02:12:54.971Z,36.40
2022-10-22T02:14:30.425Z,37.90
2022-10-22T02:16:04.464Z,35.07
2022-10-22T02:17:40.699Z,35.97
2022-10-22T02:19:17.633Z,35.90
2022-10-22T02:20:51.547Z,35.33
2022-10-22T02:22:26.126Z,34.30
2022-10-22T02:23:59.488Z,34.87
2022-10-22T02:25:35.035Z,36.47
2022-10-22T02:27:15.088Z,34.00
2022-10-22T02:28:57.792Z,34.47
2022-10-22T02:30:32.484Z,33.33
2022-10-22T02:32:08.299Z,33.87
2022-10-22T02:33:47.661Z,32.60
2022-10-22T02:35:24.162Z,34.30
2022-10-22T02:36:59.119Z,34.10
2022-10-22T02:38:33.840Z,34.40
2022-10-22T02:40:07.797Z,34.57
2022-10-22T02:41:41.215Z,33.27
2022-10-22T02:43:13.266Z,33.53
2022-10-22T02:44:46.479Z,35.40
2022-10-22T02:46:18.577Z,34.67
2022-10-22T02:47:51.825Z,34.70
2022-10-22T02:49:25.229Z,33.13
2022-10-22T02:50:58.285Z,33.17
2022-10-22T02:52:31.317Z,33.40
2022-10-22T02:54:04.545Z,33.87
2022-10-22T02:55:37.619Z,35.00
2022-10-22T02:57:10.807Z,33.73
2022-10-22T02:58:43.928Z,34.60
2022-10-22T03:00:17.562Z,34.23
2022-10-22T03:01:49.630Z,34.13
2022-10-22T03:03:22.710Z,33.60
2022-10-22T03:04:57.122Z,35.17
2022-10-22T03:06:30.205Z,34.87
2022-10-22T03:08:03.240Z,35.30
2022-10-22T03:09:36.352Z,34.53
2022-10-22T03:11:08.452Z,34.07
2022-10-22T03:12:41.508Z,35.73
2022-10-22T03:14:14.728Z,33.53
2022-10-22T03:15:50.017Z,33.90
2022-10-22T03:17:22.176Z,34.13
2022-10-22T03:18:55.203Z,33.90
2022-10-22T03:20:28.762Z,34.33
2022-10-22T03:22:03.583Z,34.30
2022-10-22T03:23:38.157Z,34.47
2022-10-22T03:25:15.253Z,36.70
2022-10-22T03:26:50.010Z,35.93
2022-10-22T03:28:23.099Z,36.20
2022-10-22T03:29:57.821Z,35.67
2022-10-22T03:31:30.859Z,35.33
2022-10-22T03:33:03.967Z,35.70
2022-10-22T03:34:37.190Z,36.67
2022-10-22T03:36:11.968Z,36.97
2022-10-22T03:37:45.121Z,36.33
2022-10-22T03:39:20.201Z,36.40
2022-10-22T03:40:52.745Z,36.67
2022-10-22T03:42:26.487Z,36.87
2022-10-22T03:44:01.987Z,35.23
2022-10-22T03:45:34.119Z,35.33
2022-10-22T03:47:07.259Z,36.70
2022-10-22T03:48:40.339Z,35.90
2022-10-22T03:50:13.395Z,37.03
2022-10-22T03:51:47.882Z,35.23
2022-10-22T03:53:21.031Z,38.17
2022-10-22T03:54:54.098Z,37.53
2022-10-22T03:56:27.177Z,36.40
2022-10-22T03:58:00.213Z,35.47
2022-10-22T03:59:36.749Z,35.90
2022-10-22T04:01:14.108Z,35.90
2022-10-22T04:02:47.262Z,34.93
2022-10-22T04:04:20.427Z,36.17
2022-10-22T04:05:53.452Z,36.37
2022-10-22T04:07:27.978Z,36.00
2022-10-22T04:09:02.305Z,36.70
2022-10-22T04:10:35.557Z,35.43
2022-10-22T04:12:09.539Z,34.97
2022-10-22T04:13:42.624Z,34.53
2022-10-22T04:15:15.800Z,35.23
2022-10-22T04:16:47.839Z,34.70
2022-10-22T04:18:21.748Z,34.30
2022-10-22T04:19:54.792Z,34.07
2022-10-22T04:21:27.837Z,34.60
2022-10-22T04:23:02.250Z,33.93
2022-10-22T04:24:35.361Z,34.13
2022-10-22T04:26:09.236Z,34.40
2022-10-22T04:27:41.511Z,33.93
2022-10-22T04:29:16.228Z,33.57
2022-10-22T04:30:49.586Z,33.70
2022-10-22T04:32:21.793Z,33.77
2022-10-22T04:33:55.525Z,34.57
2022-10-22T04:35:28.856Z,33.10
2022-10-22T04:37:00.910Z,32.97
2022-10-22T04:38:35.564Z,34.53
2022-10-22T04:40:09.990Z,33.60
2022-10-22T04:41:43.146Z,33.10
2022-10-22T04:43:16.179Z,34.77
2022-10-22T04:44:49.242Z,34.40
2022-10-22T04:46:22.376Z,33.20
2022-10-22T04:47:55.415Z,34.77
2022-10-22T04:49:28.616Z,33.70
2022-10-22T04:51:01.661Z,32.57
2022-10-22T04:52:34.697Z,33.57
2022-10-22T04:54:09.131Z,34.07
2022-10-22T04:55:41.197Z,31.77
2022-10-22T04:57:14.930Z,31.37
2022-10-22T04:58:47.531Z,33.97
2022-10-22T05:00:20.803Z,32.87
2022-10-22T05:01:53.868Z,32.23
2022-10-22T05:03:27.075Z,31.37
2022-10-22T05:05:00.314Z,30.97
2022-10-22T05:06:34.489Z,32.67
2022-10-22T05:08:07.512Z,31.57
2022-10-22T05:09:41.961Z,34.57
2022-10-22T05:11:15.799Z,32.87
2022-10-22T05:12:48.928Z,32.00
2022-10-22T05:14:24.158Z,32.90
2022-10-22T05:15:56.270Z,33.57
2022-10-22T05:17:29.423Z,33.17
2022-10-22T05:19:02.769Z,31.80
2022-10-22T05:20:35.938Z,32.07
2022-10-22T05:22:08.979Z,31.97
2022-10-22T05:23:42.224Z,33.80
2022-10-22T05:25:16.769Z,32.70
2022-10-22T05:26:51.285Z,31.60
2022-10-22T05:28:24.446Z,33.67
2022-10-22T05:29:56.490Z,32.53
2022-10-22T05:31:29.818Z,32.90
2022-10-22T05:33:01.878Z,32.10
2022-10-22T05:34:36.144Z,32.43
2022-10-22T05:36:12.258Z,33.93
2022-10-22T05:37:45.440Z,31.67
2022-10-22T05:39:18.512Z,30.97
2022-10-22T05:41:02.609Z,30.47
2022-10-22T05:42:35.655Z,31.70
2022-10-22T05:44:07.803Z,30.57
2022-10-22T05:45:43.287Z,32.57
2022-10-22T05:47:16.355Z,31.13
2022-10-22T05:48:49.810Z,32.43
2022-10-22T05:50:22.866Z,31.03
2022-10-22T05:51:55.926Z,31.40
2022-10-22T05:53:27.995Z,32.93
2022-10-22T05:55:01.157Z,36.00
2022-10-22T05:56:37.591Z,30.70
2022-10-22T05:58:10.619Z,33.00
2022-10-22T05:59:43.670Z,29.67
2022-10-22T06:01:19.319Z,31.20
2022-10-22T06:02:52.914Z,30.13
2022-10-22T06:04:25.941Z,30.43
2022-10-22T06:06:00.242Z,30.77
2022-10-22T06:07:33.468Z,29.00
2022-10-22T06:09:12.095Z,29.97
2022-10-22T06:10:44.440Z,31.13
2022-10-22T06:12:18.818Z,29.67
2022-10-22T06:13:52.870Z,29.47
2022-10-22T06:15:25.986Z,29.33
2022-10-22T06:17:01.256Z,30.63
2022-10-22T06:18:34.518Z,29.17
2022-10-22T06:20:08.897Z,29.90
2022-10-22T06:21:42.150Z,29.70
2022-10-22T06:23:15.694Z,30.13
2022-10-22T06:24:48.776Z,30.30
2022-10-22T06:26:21.853Z,30.60
2022-10-22T06:27:56.260Z,29.50
2022-10-22T06:29:29.476Z,29.57
2022-10-22T06:31:03.755Z,34.00
2022-10-22T06:32:36.829Z,33.83
2022-10-22T06:34:12.579Z,32.77
2022-10-22T06:35:46.037Z,29.47
2022-10-22T06:37:19.143Z,31.77
2022-10-22T06:38:53.446Z,31.60
2022-10-22T06:40:26.635Z,30.90
2022-10-22T06:41:59.705Z,31.90
2022-10-22T06:43:36.494Z,31.93
2022-10-22T06:45:11.124Z,32.00
2022-10-22T06:46:43.649Z,30.03
2022-10-22T06:48:16.824Z,31.63
2022-10-22T06:49:50.313Z,31.60
2022-10-22T06:51:22.840Z,33.10
2022-10-22T06:52:55.980Z,33.40
2022-10-22T06:54:29.049Z,33.13
2022-10-22T06:56:06.688Z,33.63
2022-10-22T06:57:40.060Z,33.67
2022-10-22T06:59:14.833Z,33.23
2022-10-22T07:00:47.977Z,32.47
2022-10-22T07:02:21.416Z,31.83
2022-10-22T07:03:55.389Z,32.73
2022-10-22T07:05:28.437Z,34.10
2022-10-22T07:07:01.468Z,32.57
2022-10-22T07:08:35.425Z,33.87
2022-10-22T07:10:10.210Z,32.83
2022-10-22T07:11:44.821Z,32.87
2022-10-22T07:13:16.885Z,33.33
2022-10-22T07:14:51.768Z,33.23
2022-10-22T07:16:29.512Z,33.20
2022-10-22T07:18:05.450Z,33.60
2022-10-22T07:19:38.499Z,33.33
2022-10-22T07:21:11.903Z,33.07
2022-10-22T07:22:44.928Z,33.60
2022-10-22T07:24:17.981Z,32.47
2022-10-22T07:25:50.077Z,31.97
2022-10-22T07:27:23.191Z,31.93
2022-10-22T07:28:56.243Z,33.07
2022-10-22T07:30:30.674Z,31.03
2022-10-22T07:32:03.782Z,31.13
2022-10-22T07:33:37.078Z,32.50
2022-10-22T07:35:10.548Z,33.00
2022-10-22T07:36:43.828Z,33.00
2022-10-22T07:38:16.859Z,32.57
2022-10-22T07:39:50.214Z,33.10
2022-10-22T07:41:23.660Z,34.00
2022-10-22T07:42:56.762Z,33.83
2022-10-22T07:44:29.979Z,33.07
2022-10-22T07:46:04.431Z,34.10
2022-10-22T07:47:37.883Z,34.73
2022-10-22T07:49:11.093Z,33.57
2022-10-22T07:52:17.267Z,33.17
2022-10-22T07:53:50.309Z,32.37
2022-10-22T07:55:23.390Z,31.47
2022-10-22T07:56:56.469Z,31.83
2022-10-22T07:58:29.570Z,31.27
2022-10-22T08:00:02.588Z,30.97
2022-10-22T08:01:46.958Z,30.83
2022-10-22T08:03:20.243Z,30.17
2022-10-22T08:04:53.504Z,31.47
2022-10-22T08:06:26.825Z,31.40
2022-10-22T08:08:00.599Z,31.67
2022-10-22T08:09:33.886Z,32.00
2022-10-22T08:11:07.371Z,32.67
2022-10-22T08:12:40.906Z,31.60
2022-10-22T08:14:14.300Z,31.53
2022-10-22T08:15:49.009Z,32.40
2022-10-22T08:17:24.977Z,33.00
2022-10-22T08:18:58.039Z,31.87
2022-10-22T08:20:30.228Z,32.43
2022-10-22T08:22:03.579Z,31.13
2022-10-22T08:23:36.673Z,31.40
2022-10-22T08:25:10.600Z,32.17
2022-10-22T08:26:43.922Z,29.10
2022-10-22T08:28:19.880Z,30.30
2022-10-22T08:29:55.030Z,28.37
2022-10-22T08:31:28.318Z,29.97
2022-10-22T08:33:03.162Z,28.50
2022-10-22T08:34:36.246Z,29.30
2022-10-22T08:36:10.003Z,28.43
2022-10-22T08:37:42.314Z,29.17
2022-10-22T08:39:15.753Z,29.47
2022-10-22T08:40:52.422Z,29.03
2022-10-22T08:42:50.156Z,27.40
2022-10-22T08:44:52.049Z,27.37
2022-10-22T08:46:48.474Z,27.17
2022-10-22T08:48:41.028Z,28.40
2022-10-22T08:50:18.990Z,28.80
2022-10-22T08:51:52.908Z,27.77
2022-10-22T08:53:34.158Z,28.13
2022-10-22T08:55:13.796Z,27.87
2022-10-22T08:56:55.962Z,27.60
2022-10-22T08:58:36.942Z,26.77
2022-10-22T09:00:15.209Z,27.17
2022-10-22T09:01:52.623Z,28.60
2022-10-22T09:03:36.139Z,27.33
2022-10-22T09:05:23.217Z,26.93
2022-10-22T09:06:58.564Z,26.27
2022-10-22T09:08:31.740Z,26.93
2022-10-22T09:10:05.382Z,25.93
2022-10-22T09:11:41.049Z,26.73
2022-10-22T09:13:18.887Z,27.07
2022-10-22T09:14:52.258Z,24.83
2022-10-22T09:16:35.042Z,25.13
2022-10-22T09:18:23.038Z,24.73
2022-10-22T09:20:07.836Z,25.43
2022-10-22T09:21:52.005Z,24.40
2022-10-22T09:23:36.408Z,24.77
2022-10-22T09:25:19.747Z,23.50
2022-10-22T09:26:52.842Z,23.70
2022-10-22T09:28:25.910Z,22.63
2022-10-22T09:29:59.022Z,21.43
2022-10-22T09:31:34.215Z,22.63
2022-10-22T09:33:20.168Z,21.03
2022-10-22T09:34:59.190Z,20.33
2022-10-22T09:36:32.607Z,20.70
2022-10-22T09:38:09.700Z,18.07
2022-10-22T09:39:46.370Z,17.53
2022-10-22T09:41:21.911Z,17.33
2022-10-22T09:42:55.317Z,17.93
2022-10-22T09:44:28.391Z,18.17
2022-10-22T09:46:03.443Z,16.70
2022-10-22T09:47:43.385Z,16.87
2022-10-22T09:49:24.809Z,13.50
2022-10-22T09:51:05.773Z,13.93
2022-10-22T09:52:41.679Z,14.80
2022-10-22T09:54:18.056Z,13.97
2022-10-22T09:55:53.638Z,13.23
2022-10-22T09:57:29.621Z,13.43
2022-10-22T09:59:02.938Z,12.20
2022-10-22T10:00:36.025Z,12.47
2022-10-22T10:02:20.138Z,12.87
2022-10-22T10:04:09.444Z,12.53
2022-10-22T10:05:44.046Z,13.27
2022-10-22T10:07:20.205Z,14.17
2022-10-22T10:08:53.565Z,14.27
2022-10-22T10:10:36.119Z,13.43
2022-10-22T10:12:34.538Z,13.27
2022-10-22T10:14:15.982Z,13.50
2022-10-22T10:15:56.071Z,12.87
2022-10-22T10:17:37.485Z,13.03
2022-10-22T10:19:37.700Z,12.87
2022-10-22T10:21:19.795Z,13.33
2022-10-22T10:23:03.643Z,13.33
2022-10-22T10:24:50.384Z,12.23
2022-10-22T10:26:31.575Z,11.63
2022-10-22T10:28:18.662Z,12.10
2022-10-22T10:29:56.549Z,11.47
2022-10-22T10:31:42.319Z,11.17
2022-10-22T10:33:25.204Z,10.70
2022-10-22T10:35:08.100Z,11.00
2022-10-22T10:36:51.940Z,11.47
2022-10-22T10:38:48.882Z,11.17
2022-10-22T10:40:29.530Z,10.57
2022-10-22T10:42:11.893Z,10.97
2022-10-22T10:44:00.055Z,10.37
2022-10-22T10:45:43.447Z,10.37
2022-10-22T10:47:34.664Z,10.33
2022-10-22T10:49:11.838Z,9.63
2022-10-22T10:50:58.778Z,8.90
2022-10-22T10:52:39.697Z,8.90
2022-10-22T10:54:25.811Z,7.90
2022-10-22T10:56:05.801Z,8.90
2022-10-22T10:57:47.862Z,10.07
2022-10-22T10:59:36.413Z,9.90
2022-10-22T11:01:19.551Z,7.63
2022-10-22T11:03:32.400Z,8.00
2022-10-22T11:05:29.298Z,7.80
2022-10-22T11:07:11.648Z,8.33
2022-10-22T11:08:57.492Z,8.30
2022-10-22T11:10:37.727Z,8.03
2022-10-22T11:12:16.125Z,8.43
2022-10-22T11:13:53.877Z,8.47
2022-10-22T11:15:30.903Z,7.93
2022-10-22T11:17:07.567Z,7.90
2022-10-22T11:18:44.565Z,7.83
2022-10-22T11:20:23.617Z,8.03
2022-10-22T11:22:05.143Z,7.23
2022-10-22T11:23:42.300Z,7.30
2022-10-22T11:25:19.522Z,7.50
2022-10-22T11:26:57.817Z,7.73
2022-10-22T11:28:35.157Z,8.40
2022-10-22T11:30:14.800Z,8.53
2022-10-22T11:31:48.938Z,8.13
2022-10-22T11:33:27.819Z,8.23
2022-10-22T11:35:04.702Z,8.60
2022-10-22T11:36:39.131Z,8.93
2022-10-22T11:38:16.093Z,8.13
2022-10-22T11:39:52.166Z,8.20
2022-10-22T11:41:27.629Z,8.03
2022-10-22T11:43:06.818Z,8.60
2022-10-22T11:44:59.707Z,10.60
2022-10-22T11:46:44.313Z,9.03
2022-10-22T11:48:19.267Z,10.70
2022-10-22T11:50:03.312Z,9.57
2022-10-22T11:51:38.879Z,9.93
2022-10-22T11:53:20.917Z,9.40
2022-10-22T11:54:58.866Z,9.43
2022-10-22T11:56:39.427Z,8.97
2022-10-22T11:58:30.644Z,9.53
2022-10-22T12:00:10.666Z,10.23
2022-10-22T12:01:49.447Z,10.13
2022-10-22T12:03:40.286Z,9.47
2022-10-22T12:05:37.302Z,9.53
2022-10-22T12:07:32.878Z,10.07
2022-10-22T12:09:08.708Z,9.13
2022-10-22T12:10:56.626Z,8.63
2022-10-22T12:12:36.886Z,8.57
2022-10-22T12:14:20.696Z,8.57
2022-10-22T12:15:55.806Z,9.33
2022-10-22T12:17:29.881Z,9.00
2022-10-22T12:19:06.752Z,9.50
2022-10-22T12:20:39.844Z,10.67
2022-10-22T12:22:17.848Z,15.30
2022-10-22T12:23:52.722Z,10.90
2022-10-22T12:25:35.430Z,10.43
2022-10-22T12:27:22.372Z,10.40
2022-10-22T12:29:00.002Z,10.87
2022-10-22T12:30:35.616Z,10.87
2022-10-22T12:32:08.666Z,10.90
2022-10-22T12:33:41.759Z,10.37
2022-10-22T12:35:17.520Z,10.23
2022-10-22T12:36:52.181Z,9.87
2022-10-22T12:38:26.536Z,10.70
2022-10-22T12:39:59.556Z,10.07
2022-10-22T12:41:33.282Z,10.23
2022-10-22T12:43:13.344Z,10.37
2022-10-22T12:44:46.464Z,10.00
2022-10-22T12:46:20.940Z,9.70
2022-10-22T12:47:57.994Z,10.33
2022-10-22T12:49:43.791Z,10.17
2022-10-22T12:51:20.852Z,10.07
2022-10-22T12:52:56.096Z,9.00
2022-10-22T12:54:31.617Z,9.83
2022-10-22T12:56:07.168Z,9.67
2022-10-22T12:57:40.208Z,10.13
2022-10-22T12:59:19.278Z,10.23
2022-10-22T13:00:57.383Z,8.93
2022-10-22T13:02:32.020Z,8.57
2022-10-22T13:04:07.858Z,9.57
2022-10-22T13:05:41.017Z,8.37
2022-10-22T13:07:22.267Z,8.77
2022-10-22T13:09:07.798Z,8.80
2022-10-22T13:10:42.649Z,8.50
2022-10-22T13:12:16.694Z,8.80
2022-10-22T13:13:49.801Z,8.50
2022-10-22T13:15:35.759Z,8.00
2022-10-22T13:17:12.001Z,8.30
2022-10-22T13:18:48.208Z,7.33
2022-10-22T13:20:23.371Z,8.10
2022-10-22T13:21:56.624Z,9.93
2022-10-22T13:23:31.561Z,9.50
2022-10-22T13:25:23.440Z,9.27
2022-10-22T13:26:56.790Z,8.93
2022-10-22T13:28:30.503Z,9.40
2022-10-22T13:30:10.569Z,10.10
2022-10-22T13:31:47.994Z,9.50
2022-10-22T13:33:26.204Z,8.73
2022-10-22T13:35:04.575Z,9.43
2022-10-22T13:36:37.952Z,8.40
2022-10-22T13:38:18.308Z,8.63
2022-10-22T13:39:51.368Z,8.53
2022-10-22T13:41:26.423Z,8.50
2022-10-22T13:42:59.539Z,9.40
2022-10-22T13:44:32.621Z,10.00
2022-10-22T13:46:09.971Z,9.37
2022-10-22T13:47:45.850Z,10.10
2022-10-22T13:49:22.493Z,9.83
2022-10-22T13:50:56.968Z,10.30
2022-10-22T13:52:34.305Z,10.10
2022-10-22T13:54:14.708Z,9.90
2022-10-22T13:55:47.869Z,9.33
2022-10-22T13:57:20.922Z,10.13
2022-10-22T13:58:53.991Z,9.77
2022-10-22T14:00:27.324Z,9.57
2022-10-22T14:02:05.841Z,9.30
2022-10-22T14:03:39.221Z,10.30
2022-10-22T14:05:13.037Z,9.93
2022-10-22T14:06:47.522Z,9.43
2022-10-22T14:08:22.851Z,10.40
2022-10-22T14:09:55.918Z,9.80
2022-10-22T14:11:31.123Z,9.90
2022-10-22T14:13:04.412Z,9.33
2022-10-22T14:14:38.300Z,10.00
2022-10-22T14:16:19.754Z,10.60
2022-10-22T14:17:57.235Z,9.93
2022-10-22T14:19:31.593Z,9.80
2022-10-22T14:21:07.468Z,9.73
2022-10-22T14:22:41.915Z,10.33
2022-10-22T14:24:15.012Z,9.93
2022-10-22T14:25:48.408Z,10.17
2022-10-22T14:27:21.461Z,10.33
2022-10-22T14:29:11.430Z,11.10
2022-10-22T14:30:45.522Z,10.07
2022-10-22T14:32:20.417Z,11.20
2022-10-22T14:33:53.771Z,10.40
2022-10-22T14:35:26.875Z,10.90
2022-10-22T14:36:59.976Z,10.27
2022-10-22T14:38:34.470Z,10.70
2022-10-22T14:40:09.195Z,10.50
2022-10-22T14:41:43.348Z,10.33
2022-10-22T14:43:24.602Z,11.10
2022-10-22T14:44:57.689Z,10.73
2022-10-22T14:46:30.889Z,11.03
2022-10-22T14:48:04.111Z,11.37
2022-10-22T14:49:37.198Z,11.47
2022-10-22T14:51:13.862Z,11.63
2022-10-22T14:52:46.978Z,11.23
2022-10-22T14:54:21.445Z,11.60
2022-10-22T14:55:57.657Z,14.23
2022-10-22T14:57:30.750Z,13.23
2022-10-22T14:59:03.822Z,13.63
2022-10-22T15:00:37.240Z,13.90
2022-10-22T15:02:13.301Z,12.93
2022-10-22T15:03:46.452Z,13.30
2022-10-22T15:05:19.809Z,12.00
2022-10-22T15:06:56.302Z,13.83
2022-10-22T15:08:29.788Z,13.80
2022-10-22T15:10:05.651Z,13.57
2022-10-22T15:11:38.742Z,12.43
2022-10-22T15:13:11.916Z,13.47
2022-10-22T15:14:45.057Z,13.67
2022-10-22T15:16:18.330Z,14.80
2022-10-22T15:17:51.438Z,14.13
2022-10-22T15:19:24.531Z,14.00
2022-10-22T15:20:59.232Z,14.10
2022-10-22T15:22:35.399Z,14.83
2022-10-22T15:24:08.693Z,14.17
2022-10-22T15:25:46.130Z,14.10
2022-10-22T15:27:19.241Z,28.20
2022-10-22T15:28:52.314Z,29.57
2022-10-22T15:30:24.357Z,26.60
2022-10-22T15:31:59.275Z,17.63
2022-10-22T15:33:32.348Z,15.37
2022-10-22T15:35:06.369Z,14.37
2022-10-22T15:36:39.447Z,15.20
2022-10-22T15:38:12.558Z,15.80
2022-10-22T15:39:45.626Z,17.00
2022-10-22T15:41:20.104Z,16.30
2022-10-22T15:42:55.474Z,16.83
2022-10-22T15:44:31.838Z,17.23
2022-10-22T15:46:12.457Z,16.93
2022-10-22T15:47:47.697Z,17.27
2022-10-22T15:49:21.521Z,18.17
2022-10-22T15:50:54.804Z,18.70
2022-10-22T15:52:27.880Z,18.33
2022-10-22T15:54:01.092Z,19.30
2022-10-22T15:55:34.158Z,20.63
2022-10-22T15:57:10.699Z,19.63
2022-10-22T15:58:43.775Z,20.03
2022-10-22T16:00:17.367Z,18.00
2022-10-22T16:01:50.458Z,17.67
2022-10-22T16:03:23.643Z,19.50
2022-10-22T16:04:56.773Z,18.37
2022-10-22T16:06:32.822Z,19.60
2022-10-22T16:08:06.207Z,19.97
2022-10-22T16:09:39.364Z,18.73
2022-10-22T16:11:12.457Z,20.63
2022-10-22T16:12:46.858Z,19.00
2022-10-22T16:14:21.732Z,20.60
2022-10-22T16:15:55.088Z,19.47
2022-10-22T16:17:28.213Z,18.40
2022-10-22T16:19:01.538Z,19.30
2022-10-22T16:20:39.278Z,19.23
2022-10-22T16:22:13.801Z,20.83
2022-10-22T16:23:46.978Z,22.23
2022-10-22T16:25:20.009Z,21.83
2022-10-22T16:26:53.865Z,23.47
2022-10-22T16:28:28.418Z,25.20
2022-10-22T16:30:01.480Z,23.53
2022-10-22T16:31:34.550Z,24.47
2022-10-22T16:33:08.957Z,25.07
2022-10-22T16:34:42.180Z,25.67
2022-10-22T16:36:17.868Z,23.83
2022-10-22T16:37:50.897Z,24.00
2022-10-22T16:39:24.590Z,27.10
2022-10-22T16:41:08.587Z,24.33
2022-10-22T16:42:42.024Z,26.70
2022-10-22T16:44:16.735Z,25.63
2022-10-22T16:45:50.193Z,37.50
2022-10-22T16:47:23.223Z,29.47
2022-10-22T16:48:56.363Z,27.53
2022-10-22T16:50:29.487Z,26.40
2022-10-22T16:52:02.564Z,25.27
2022-10-22T16:53:35.822Z,24.90
2022-10-22T16:55:09.690Z,27.87
2022-10-22T16:56:42.775Z,28.97
2022-10-22T16:58:15.801Z,30.00
2022-10-22T16:59:50.272Z,32.00
2022-10-22T17:01:25.931Z,33.67
2022-10-22T17:02:59.299Z,33.03
2022-10-22T17:04:32.334Z,34.37
2022-10-22T17:06:06.346Z,36.53
2022-10-22T17:07:39.446Z,35.63
2022-10-22T17:09:12.949Z,37.43
2022-10-22T17:10:46.028Z,37.87
2022-10-22T17:12:19.100Z,39.97
2022-10-22T17:13:54.010Z,40.40
2022-10-22T17:15:28.835Z,40.27
2022-10-22T17:17:01.877Z,42.13
2022-10-22T17:18:40.297Z,41.40
2022-10-22T17:20:13.372Z,42.43
2022-10-22T17:21:46.486Z,42.40
2022-10-22T17:23:19.537Z,41.53
2022-10-22T17:25:16.325Z,42.00
2022-10-22T17:26:50.580Z,41.23
2022-10-22T17:28:23.651Z,40.07
2022-10-22T17:29:56.712Z,37.57
2022-10-22T17:31:33.107Z,39.70
2022-10-22T17:33:06.555Z,36.33
2022-10-22T17:34:40.443Z,37.20
2022-10-22T17:36:14.221Z,35.57
2022-10-22T17:37:47.605Z,34.77
2022-10-22T17:39:20.673Z,33.53
2022-10-22T17:40:53.893Z,39.00
2022-10-22T17:42:26.992Z,37.10
2022-10-22T17:44:02.419Z,38.10
2022-10-22T17:45:36.329Z,39.63
2022-10-22T17:47:10.781Z,36.57
2022-10-22T17:48:43.875Z,38.60
2022-10-22T17:50:17.031Z,38.57
2022-10-22T17:51:50.196Z,36.50
2022-10-22T17:53:23.310Z,38.33
2022-10-22T17:54:56.348Z,37.40
2022-10-22T17:56:30.961Z,39.10
2022-10-22T17:58:04.099Z,42.20
2022-10-22T17:59:37.578Z,42.97
2022-10-22T18:01:22.078Z,42.10
2022-10-22T18:02:56.558Z,42.23
2022-10-22T18:04:31.049Z,43.80
2022-10-22T18:06:08.641Z,43.40
2022-10-22T18:07:41.656Z,39.80
2022-10-22T18:09:18.555Z,37.83
2022-10-22T18:10:52.270Z,37.23
2022-10-22T18:12:25.346Z,33.93
2022-10-22T18:13:58.695Z,34.30
2022-10-22T18:15:33.432Z,31.90
2022-10-22T18:17:06.563Z,34.83
2022-10-22T18:18:41.228Z,33.80
2022-10-22T18:20:14.397Z,30.87
2022-10-22T18:21:47.755Z,35.73
2022-10-22T18:23:21.399Z,33.40
2022-10-22T18:24:54.470Z,34.33
2022-10-22T18:26:27.595Z,34.07
2022-10-22T18:28:00.651Z,33.60
2022-10-22T18:29:33.702Z,31.57
2022-10-22T18:31:07.930Z,31.83
2022-10-22T18:32:41.080Z,30.70
2022-10-22T18:34:17.644Z,30.13
2022-10-22T18:35:53.620Z,32.20
2022-10-22T18:37:26.816Z,30.20
2022-10-22T18:39:01.605Z,34.90
2022-10-22T18:40:35.971Z,34.10
2022-10-22T18:42:09.106Z,35.87
2022-10-22T18:43:41.184Z,35.30
2022-10-22T18:45:14.244Z,37.27
2022-10-22T18:46:47.312Z,37.33
2022-10-22T18:48:22.886Z,36.43
2022-10-22T18:49:57.321Z,37.00
2022-10-22T18:51:31.779Z,32.17
2022-10-22T18:53:05.005Z,33.73
2022-10-22T18:54:38.137Z,32.70
2022-10-22T18:56:12.760Z,33.77
2022-10-22T18:57:45.838Z,39.03
2022-10-22T18:59:20.527Z,43.63
2022-10-22T19:00:53.683Z,42.27
2022-10-22T19:02:26.833Z,41.17
2022-10-22T19:03:59.857Z,42.43
2022-10-22T19:05:35.086Z,42.23
2022-10-22T19:08:42.078Z,47.03
2022-10-22T19:10:15.190Z,50.07
2022-10-22T19:11:48.594Z,48.20
2022-10-22T19:13:23.334Z,39.53
2022-10-22T19:14:56.871Z,32.30
2022-10-22T19:16:30.077Z,35.73
2022-10-22T19:18:03.158Z,36.17
2022-10-22T19:19:36.399Z,39.07
2022-10-22T19:21:12.386Z,42.80
2022-10-22T19:22:45.474Z,45.87
2022-10-22T19:24:20.425Z,41.77
2022-10-22T19:26:01.932Z,42.63
2022-10-22T19:27:36.429Z,42.23
2022-10-22T19:29:10.970Z,40.10
2022-10-22T19:30:44.680Z,40.27
2022-10-22T19:32:19.923Z,38.27
2022-10-22T19:33:54.568Z,38.17
2022-10-22T19:35:27.669Z,36.53
2022-10-22T19:37:02.109Z,40.30
2022-10-22T19:38:35.419Z,41.33
2022-10-22T19:40:09.859Z,34.57
2022-10-22T19:41:42.934Z,41.83
2022-10-22T19:43:18.894Z,44.30
2022-10-22T19:44:52.337Z,42.53
2022-10-22T19:46:26.661Z,43.10
2022-10-22T19:47:59.700Z,41.77
2022-10-22T19:49:33.752Z,43.10
2022-10-22T19:51:09.340Z,46.30
2022-10-22T19:52:44.161Z,44.10
2022-10-22T19:54:18.778Z,43.13
2022-10-22T19:55:51.821Z,41.80
2022-10-22T19:57:24.895Z,41.57
2022-10-22T19:58:58.262Z,40.97
2022-10-22T20:00:32.099Z,40.43
2022-10-22T20:02:05.238Z,38.50
2022-10-22T20:03:39.598Z,39.40
2022-10-22T20:05:12.794Z,38.93
2022-10-22T20:06:46.125Z,37.57
2022-10-22T20:08:20.554Z,36.07
2022-10-22T20:09:53.785Z,37.17
2022-10-22T20:11:28.800Z,33.57
2022-10-22T20:13:01.880Z,34.27
2022-10-22T20:14:35.224Z,33.87
2022-10-22T20:16:08.473Z,33.10
2022-10-22T20:17:41.680Z,33.87
2022-10-22T20:19:16.995Z,32.37
2022-10-22T20:20:50.432Z,34.33
2022-10-22T20:22:23.482Z,31.80
2022-10-22T20:23:58.440Z,32.80
2022-10-22T20:25:31.506Z,34.20
2022-10-22T20:27:04.675Z,33.93
2022-10-22T20:28:38.616Z,32.90
2022-10-22T20:30:12.528Z,32.57
2022-10-22T20:31:45.785Z,34.37
2022-10-22T20:33:18.945Z,33.90
2022-10-22T20:34:51.998Z,34.00
2022-10-22T20:36:26.886Z,34.20
2022-10-22T20:37:59.905Z,32.43
2022-10-22T20:39:34.438Z,31.57
2022-10-22T20:41:10.104Z,32.20
2022-10-22T20:42:43.483Z,31.97